ROU119 CYHM-KPWK
Flight info
| Callsign | ROU119 |
|---|---|
| Flight time | 1h 2m |
| Altitude | 36000 |
| Route | DERLO DCT HOCKE DCT FNT DCT PMM DCT FIYER DCT OBK |
| Aircraft | A319/M-SDE3FGHIRWY/LB1 |
Departure
| Time | 2026-04-17 02:21 |
|---|---|
| Airport | John C. Munro Hamilton International Airport (CYHM) |
Arrival
| Time | 2026-04-17 03:24 |
|---|---|
| Airport | Chicago Executive Airport (KPWK) |
| Time | Latitude | Longitude | Altitude | Speed | Heading |
|---|---|---|---|---|---|
| 2026-04-17 01:42 | 43.16419 | -79.92299 | 780 ft | 0 kts | 113° |
| 2026-04-17 01:50 | 43.16425 | -79.92316 | 780 ft | 4 kts | 112° |
| 2026-04-17 01:50 | 43.16434 | -79.92351 | 780 ft | 4 kts | 107° |
| 2026-04-17 01:50 | 43.16439 | -79.92376 | 780 ft | 0 kts | 104° |
| 2026-04-17 02:06 | 43.16440 | -79.92375 | 780 ft | 1 kts | 94° |
| 2026-04-17 02:06 | 43.16450 | -79.92354 | 780 ft | 0 kts | 33° |
| 2026-04-17 02:06 | 43.16460 | -79.92351 | 780 ft | 7 kts | 15° |
| 2026-04-17 02:07 | 43.16504 | -79.92344 | 781 ft | 4 kts | 6° |
| 2026-04-17 02:07 | 43.16518 | -79.92342 | 782 ft | 0 kts | 6° |
| 2026-04-17 02:07 | 43.16523 | -79.92342 | 782 ft | 6 kts | 6° |
| 2026-04-17 02:07 | 43.16566 | -79.92380 | 783 ft | 7 kts | 292° |
| 2026-04-17 02:08 | 43.16579 | -79.92443 | 783 ft | 6 kts | 286° |
| 2026-04-17 02:08 | 43.16608 | -79.92499 | 783 ft | 13 kts | 330° |
| 2026-04-17 02:08 | 43.16689 | -79.92565 | 782 ft | 13 kts | 329° |
| 2026-04-17 02:08 | 43.16762 | -79.92624 | 782 ft | 11 kts | 329° |
| 2026-04-17 02:09 | 43.16827 | -79.92676 | 780 ft | 11 kts | 329° |
| 2026-04-17 02:09 | 43.16889 | -79.92725 | 779 ft | 10 kts | 329° |
| 2026-04-17 02:09 | 43.16943 | -79.92768 | 779 ft | 8 kts | 329° |
| 2026-04-17 02:09 | 43.16986 | -79.92803 | 778 ft | 7 kts | 329° |
| 2026-04-17 02:10 | 43.17035 | -79.92842 | 778 ft | 12 kts | 330° |
| 2026-04-17 02:10 | 43.17126 | -79.92914 | 780 ft | 15 kts | 330° |
| 2026-04-17 02:10 | 43.17157 | -79.92924 | 781 ft | 3 kts | 32° |
| 2026-04-17 02:10 | 43.17121 | -79.92864 | 778 ft | 20 kts | 134° |
| 2026-04-17 02:11 | 43.17112 | -79.92768 | 777 ft | 3 kts | 50° |
| 2026-04-17 02:11 | 43.17175 | -79.92682 | 780 ft | 25 kts | 49° |
| 2026-04-17 02:11 | 43.17285 | -79.92521 | 782 ft | 22 kts | 46° |
| 2026-04-17 02:11 | 43.17375 | -79.92379 | 784 ft | 18 kts | 51° |
| 2026-04-17 02:12 | 43.17453 | -79.92255 | 780 ft | 17 kts | 47° |
| 2026-04-17 02:12 | 43.17538 | -79.92124 | 781 ft | 21 kts | 49° |
| 2026-04-17 02:12 | 43.17647 | -79.91951 | 780 ft | 27 kts | 48° |
| 2026-04-17 02:12 | 43.17762 | -79.91795 | 784 ft | 11 kts | 48° |
| 2026-04-17 02:13 | 43.17758 | -79.91769 | 784 ft | 0 kts | 167° |
| 2026-04-17 02:13 | 43.17749 | -79.91777 | 784 ft | 9 kts | 209° |
| 2026-04-17 02:13 | 43.17710 | -79.91857 | 783 ft | 8 kts | 228° |
| 2026-04-17 02:13 | 43.17706 | -79.91864 | 783 ft | 0 kts | 226° |
| 2026-04-17 02:20 | 43.17697 | -79.91876 | 783 ft | 13 kts | 226° |
| 2026-04-17 02:20 | 43.17448 | -79.92264 | 781 ft | 92 kts | 229° |
| 2026-04-17 02:21 | 43.16891 | -79.93132 | 838 ft | 143 kts | 229° |
| 2026-04-17 02:21 | 43.16217 | -79.94153 | 1424 ft | 144 kts | 229° |
| 2026-04-17 02:21 | 43.15556 | -79.95180 | 2080 ft | 143 kts | 230° |
| 2026-04-17 02:21 | 43.14948 | -79.96260 | 2626 ft | 149 kts | 246° |
| 2026-04-17 02:22 | 43.14781 | -79.97749 | 2924 ft | 170 kts | 268° |
| 2026-04-17 02:22 | 43.14690 | -79.99460 | 3235 ft | 191 kts | 267° |
| 2026-04-17 02:22 | 43.14570 | -80.01379 | 3527 ft | 215 kts | 266° |
| 2026-04-17 02:22 | 43.14429 | -80.03543 | 3892 ft | 241 kts | 266° |
| 2026-04-17 02:23 | 43.14273 | -80.05893 | 4484 ft | 257 kts | 266° |
| 2026-04-17 02:23 | 43.14104 | -80.08374 | 5361 ft | 264 kts | 266° |
| 2026-04-17 02:23 | 43.13930 | -80.10887 | 6300 ft | 267 kts | 266° |
| 2026-04-17 02:23 | 43.13753 | -80.13437 | 7223 ft | 271 kts | 266° |
| 2026-04-17 02:24 | 43.13573 | -80.16024 | 8111 ft | 275 kts | 266° |
| 2026-04-17 02:24 | 43.13387 | -80.18648 | 8985 ft | 279 kts | 265° |
| 2026-04-17 02:24 | 43.13199 | -80.21312 | 9842 ft | 283 kts | 265° |
| 2026-04-17 02:24 | 43.13008 | -80.24048 | 10424 ft | 299 kts | 265° |
| 2026-04-17 02:25 | 43.12803 | -80.26973 | 10848 ft | 317 kts | 265° |
| 2026-04-17 02:25 | 43.12586 | -80.30020 | 11579 ft | 323 kts | 264° |
| 2026-04-17 02:25 | 43.12365 | -80.33091 | 12377 ft | 326 kts | 264° |
| 2026-04-17 02:25 | 43.12142 | -80.36198 | 13174 ft | 329 kts | 264° |
| 2026-04-17 02:26 | 43.11914 | -80.39324 | 13942 ft | 331 kts | 264° |
| 2026-04-17 02:26 | 43.11682 | -80.42479 | 14675 ft | 335 kts | 264° |
| 2026-04-17 02:26 | 43.11452 | -80.45632 | 15372 ft | 338 kts | 264° |
| 2026-04-17 02:26 | 43.11220 | -80.48851 | 16065 ft | 341 kts | 263° |
| 2026-04-17 02:27 | 43.10987 | -80.52099 | 16737 ft | 345 kts | 263° |
| 2026-04-17 02:27 | 43.10749 | -80.55377 | 17394 ft | 348 kts | 263° |
| 2026-04-17 02:27 | 43.10505 | -80.58690 | 18054 ft | 351 kts | 263° |
| 2026-04-17 02:27 | 43.10258 | -80.62024 | 18692 ft | 354 kts | 263° |
| 2026-04-17 02:28 | 43.10007 | -80.65386 | 19314 ft | 357 kts | 263° |
| 2026-04-17 02:28 | 43.09752 | -80.68779 | 19941 ft | 360 kts | 262° |
| 2026-04-17 02:28 | 43.09495 | -80.72206 | 20548 ft | 363 kts | 262° |
| 2026-04-17 02:28 | 43.09239 | -80.75649 | 21135 ft | 366 kts | 262° |
| 2026-04-17 02:29 | 43.08979 | -80.79123 | 21712 ft | 368 kts | 262° |
| 2026-04-17 02:29 | 43.08715 | -80.82624 | 22273 ft | 371 kts | 262° |
| 2026-04-17 02:29 | 43.08446 | -80.86153 | 22815 ft | 374 kts | 262° |
| 2026-04-17 02:29 | 43.08175 | -80.89702 | 23357 ft | 377 kts | 262° |
| 2026-04-17 02:30 | 43.07902 | -80.93278 | 23867 ft | 379 kts | 261° |
| 2026-04-17 02:30 | 43.07626 | -80.96886 | 24358 ft | 382 kts | 261° |
| 2026-04-17 02:30 | 43.07344 | -81.00506 | 24821 ft | 385 kts | 261° |
| 2026-04-17 02:30 | 43.07057 | -81.04156 | 25283 ft | 387 kts | 261° |
| 2026-04-17 02:31 | 43.06790 | -81.07831 | 25737 ft | 391 kts | 264° |
| 2026-04-17 02:31 | 43.06900 | -81.11573 | 26146 ft | 397 kts | 275° |
| 2026-04-17 02:31 | 43.07368 | -81.15267 | 26558 ft | 401 kts | 277° |
| 2026-04-17 02:31 | 43.07859 | -81.19033 | 26970 ft | 403 kts | 277° |
| 2026-04-17 02:32 | 43.08345 | -81.22814 | 27364 ft | 405 kts | 276° |
| 2026-04-17 02:32 | 43.08831 | -81.26637 | 27757 ft | 408 kts | 276° |
| 2026-04-17 02:32 | 43.09317 | -81.30475 | 28133 ft | 411 kts | 276° |
| 2026-04-17 02:32 | 43.09805 | -81.34336 | 28529 ft | 413 kts | 276° |
| 2026-04-17 02:33 | 43.10293 | -81.38217 | 28897 ft | 415 kts | 276° |
| 2026-04-17 02:33 | 43.10784 | -81.42121 | 29258 ft | 417 kts | 276° |
| 2026-04-17 02:33 | 43.11276 | -81.46059 | 29612 ft | 420 kts | 276° |
| 2026-04-17 02:33 | 43.11765 | -81.49998 | 29962 ft | 422 kts | 276° |
| 2026-04-17 02:34 | 43.12260 | -81.53973 | 30298 ft | 424 kts | 276° |
| 2026-04-17 02:34 | 43.12755 | -81.57961 | 30623 ft | 426 kts | 276° |
| 2026-04-17 02:34 | 43.13252 | -81.61972 | 30931 ft | 428 kts | 276° |
| 2026-04-17 02:34 | 43.13752 | -81.66005 | 31224 ft | 431 kts | 276° |
| 2026-04-17 02:35 | 43.14251 | -81.70048 | 31522 ft | 433 kts | 276° |
| 2026-04-17 02:35 | 43.14753 | -81.74126 | 31878 ft | 433 kts | 276° |
| 2026-04-17 02:35 | 43.15742 | -81.82188 | 32674 ft | 431 kts | 277° |
| 2026-04-17 02:36 | 43.16235 | -81.86236 | 33062 ft | 430 kts | 277° |
| 2026-04-17 02:36 | 43.16725 | -81.90283 | 33440 ft | 430 kts | 276° |
| 2026-04-17 02:36 | 43.17212 | -81.94314 | 33824 ft | 429 kts | 276° |
| 2026-04-17 02:36 | 43.17697 | -81.98349 | 34201 ft | 428 kts | 276° |
| 2026-04-17 02:37 | 43.18180 | -82.02355 | 34555 ft | 428 kts | 277° |
| 2026-04-17 02:37 | 43.18664 | -82.06377 | 34859 ft | 428 kts | 277° |
| 2026-04-17 02:37 | 43.19146 | -82.10416 | 35164 ft | 428 kts | 277° |
| 2026-04-17 02:37 | 43.19617 | -82.14394 | 35474 ft | 428 kts | 277° |
| 2026-04-17 02:38 | 43.20092 | -82.18422 | 35784 ft | 428 kts | 277° |
| 2026-04-17 02:38 | 43.20565 | -82.22448 | 35955 ft | 428 kts | 277° |
| 2026-04-17 02:38 | 43.21511 | -82.30412 | 35987 ft | 420 kts | 277° |
| 2026-04-17 02:39 | 43.22438 | -82.38310 | 35987 ft | 419 kts | 277° |
| 2026-04-17 02:39 | 43.23351 | -82.46195 | 35993 ft | 419 kts | 277° |
| 2026-04-17 02:40 | 43.24264 | -82.54091 | 35988 ft | 419 kts | 277° |
| 2026-04-17 02:40 | 43.25172 | -82.61984 | 35982 ft | 419 kts | 277° |
| 2026-04-17 02:41 | 43.25692 | -82.69904 | 35983 ft | 416 kts | 265° |
| 2026-04-17 02:41 | 43.24382 | -82.77582 | 35979 ft | 415 kts | 249° |
| 2026-04-17 02:42 | 43.22308 | -82.84968 | 35975 ft | 415 kts | 249° |
| 2026-04-17 02:42 | 43.20247 | -82.92319 | 35974 ft | 415 kts | 249° |
| 2026-04-17 02:43 | 43.18167 | -82.99700 | 35973 ft | 416 kts | 249° |
| 2026-04-17 02:43 | 43.16077 | -83.07091 | 35975 ft | 416 kts | 249° |
| 2026-04-17 02:44 | 43.13979 | -83.14488 | 35982 ft | 417 kts | 249° |
| 2026-04-17 02:44 | 43.11880 | -83.21885 | 35976 ft | 417 kts | 249° |
| 2026-04-17 02:45 | 43.09768 | -83.29286 | 35975 ft | 417 kts | 249° |
| 2026-04-17 02:45 | 43.07665 | -83.36640 | 35976 ft | 417 kts | 249° |
| 2026-04-17 02:46 | 43.05543 | -83.44029 | 35977 ft | 417 kts | 249° |
| 2026-04-17 02:46 | 43.03401 | -83.51467 | 35974 ft | 418 kts | 249° |
| 2026-04-17 02:47 | 43.01265 | -83.58866 | 35970 ft | 418 kts | 249° |
| 2026-04-17 02:47 | 42.99139 | -83.66210 | 35968 ft | 418 kts | 249° |
| 2026-04-17 02:48 | 42.96993 | -83.73591 | 35966 ft | 418 kts | 250° |
| 2026-04-17 02:48 | 42.95401 | -83.80856 | 35965 ft | 418 kts | 255° |
| 2026-04-17 02:49 | 42.93878 | -83.88502 | 35967 ft | 418 kts | 255° |
| 2026-04-17 02:49 | 42.92349 | -83.96153 | 35966 ft | 418 kts | 255° |
| 2026-04-17 02:50 | 42.90802 | -84.03794 | 35970 ft | 418 kts | 255° |
| 2026-04-17 02:50 | 42.89244 | -84.11446 | 35970 ft | 418 kts | 255° |
| 2026-04-17 02:51 | 42.87681 | -84.19083 | 35970 ft | 418 kts | 255° |
| 2026-04-17 02:51 | 42.86112 | -84.26719 | 35972 ft | 419 kts | 255° |
| 2026-04-17 02:52 | 42.84538 | -84.34358 | 35974 ft | 419 kts | 255° |
| 2026-04-17 02:52 | 42.82961 | -84.42002 | 35973 ft | 419 kts | 255° |
| 2026-04-17 02:53 | 42.81369 | -84.49649 | 35975 ft | 419 kts | 255° |
| 2026-04-17 02:53 | 42.79778 | -84.57283 | 35975 ft | 418 kts | 255° |
| 2026-04-17 02:54 | 42.78185 | -84.64903 | 35971 ft | 419 kts | 255° |
| 2026-04-17 02:54 | 42.76583 | -84.72540 | 35970 ft | 419 kts | 255° |
| 2026-04-17 02:55 | 42.74984 | -84.80116 | 35967 ft | 419 kts | 255° |
| 2026-04-17 02:55 | 42.73368 | -84.87750 | 35974 ft | 419 kts | 255° |
| 2026-04-17 02:56 | 42.71754 | -84.95388 | 35978 ft | 420 kts | 255° |
| 2026-04-17 02:56 | 42.70402 | -85.01721 | 35981 ft | 420 kts | 255° |
| 2026-04-17 02:57 | 42.68768 | -85.09348 | 35985 ft | 420 kts | 255° |
| 2026-04-17 02:57 | 42.67136 | -85.16968 | 35988 ft | 420 kts | 255° |
| 2026-04-17 02:58 | 42.65495 | -85.24599 | 35985 ft | 420 kts | 255° |
| 2026-04-17 02:58 | 42.63848 | -85.32217 | 35995 ft | 420 kts | 255° |
| 2026-04-17 02:59 | 42.62202 | -85.39838 | 35996 ft | 420 kts | 255° |
| 2026-04-17 02:59 | 42.60542 | -85.47450 | 36000 ft | 421 kts | 255° |
| 2026-04-17 03:00 | 42.58875 | -85.55071 | 36002 ft | 421 kts | 255° |
| 2026-04-17 03:00 | 42.57205 | -85.62680 | 36004 ft | 421 kts | 254° |
| 2026-04-17 03:01 | 42.55548 | -85.70247 | 36010 ft | 421 kts | 255° |
| 2026-04-17 03:01 | 42.53874 | -85.77854 | 36012 ft | 421 kts | 254° |
| 2026-04-17 03:02 | 42.52186 | -85.85462 | 36014 ft | 421 kts | 254° |
| 2026-04-17 03:02 | 42.50492 | -85.93060 | 36013 ft | 421 kts | 254° |
| 2026-04-17 03:03 | 42.48796 | -86.00671 | 36013 ft | 421 kts | 254° |
| 2026-04-17 03:03 | 42.47150 | -86.08051 | 36014 ft | 421 kts | 255° |
| 2026-04-17 03:04 | 42.46292 | -86.15885 | 35352 ft | 424 kts | 266° |
| 2026-04-17 03:04 | 42.46078 | -86.19864 | 34819 ft | 421 kts | 266° |
| 2026-04-17 03:04 | 42.45882 | -86.23795 | 34333 ft | 418 kts | 267° |
| 2026-04-17 03:05 | 42.45694 | -86.27661 | 33841 ft | 415 kts | 267° |
| 2026-04-17 03:05 | 42.45501 | -86.31582 | 33347 ft | 411 kts | 267° |
| 2026-04-17 03:05 | 42.45307 | -86.35434 | 32871 ft | 408 kts | 267° |
| 2026-04-17 03:05 | 42.45110 | -86.39251 | 32393 ft | 404 kts | 267° |
| 2026-04-17 03:06 | 42.44910 | -86.43031 | 31918 ft | 401 kts | 267° |
| 2026-04-17 03:06 | 42.44708 | -86.46779 | 31451 ft | 397 kts | 267° |
| 2026-04-17 03:06 | 42.44505 | -86.50491 | 30991 ft | 394 kts | 267° |
| 2026-04-17 03:06 | 42.44303 | -86.54169 | 30040 ft | 402 kts | 267° |
| 2026-04-17 03:07 | 42.44094 | -86.57996 | 29067 ft | 411 kts | 267° |
| 2026-04-17 03:07 | 42.43881 | -86.61826 | 28487 ft | 402 kts | 267° |
| 2026-04-17 03:07 | 42.43672 | -86.65571 | 27695 ft | 396 kts | 267° |
| 2026-04-17 03:07 | 42.43464 | -86.69265 | 26898 ft | 391 kts | 267° |
| 2026-04-17 03:08 | 42.43258 | -86.72916 | 26102 ft | 387 kts | 267° |
| 2026-04-17 03:08 | 42.43056 | -86.76519 | 25326 ft | 382 kts | 267° |
| 2026-04-17 03:08 | 42.42856 | -86.80085 | 24572 ft | 378 kts | 267° |
| 2026-04-17 03:08 | 42.42656 | -86.83615 | 23813 ft | 374 kts | 267° |
| 2026-04-17 03:09 | 42.42457 | -86.87108 | 23059 ft | 370 kts | 267° |
| 2026-04-17 03:09 | 42.42259 | -86.90561 | 22318 ft | 367 kts | 267° |
| 2026-04-17 03:09 | 42.42063 | -86.93986 | 21580 ft | 362 kts | 267° |
| 2026-04-17 03:09 | 42.41866 | -86.97371 | 20824 ft | 358 kts | 267° |
| 2026-04-17 03:10 | 42.41668 | -87.00721 | 20069 ft | 355 kts | 267° |
| 2026-04-17 03:10 | 42.41471 | -87.03995 | 19329 ft | 351 kts | 267° |
| 2026-04-17 03:10 | 42.41273 | -87.07271 | 18603 ft | 348 kts | 267° |
| 2026-04-17 03:10 | 42.41076 | -87.10523 | 17870 ft | 344 kts | 267° |
| 2026-04-17 03:11 | 42.40884 | -87.13743 | 17154 ft | 341 kts | 267° |
| 2026-04-17 03:11 | 42.40696 | -87.16941 | 16632 ft | 340 kts | 267° |
| 2026-04-17 03:11 | 42.40506 | -87.20119 | 16215 ft | 338 kts | 266° |
| 2026-04-17 03:11 | 42.40311 | -87.23286 | 15791 ft | 336 kts | 266° |
| 2026-04-17 03:12 | 42.40119 | -87.26417 | 15285 ft | 332 kts | 266° |
| 2026-04-17 03:12 | 42.39919 | -87.29492 | 14810 ft | 323 kts | 264° |
| 2026-04-17 03:12 | 42.39383 | -87.32389 | 14445 ft | 313 kts | 250° |
| 2026-04-17 03:12 | 42.38409 | -87.34978 | 14079 ft | 305 kts | 239° |
| 2026-04-17 03:13 | 42.37269 | -87.37347 | 13719 ft | 295 kts | 239° |
| 2026-04-17 03:13 | 42.36170 | -87.39644 | 13377 ft | 286 kts | 239° |
| 2026-04-17 03:13 | 42.35094 | -87.41903 | 13032 ft | 286 kts | 239° |
| 2026-04-17 03:13 | 42.34016 | -87.44164 | 12694 ft | 286 kts | 239° |
| 2026-04-17 03:14 | 42.32939 | -87.46426 | 12341 ft | 286 kts | 239° |
| 2026-04-17 03:14 | 42.31859 | -87.48690 | 11950 ft | 287 kts | 239° |
| 2026-04-17 03:14 | 42.30786 | -87.50933 | 11617 ft | 287 kts | 239° |
| 2026-04-17 03:14 | 42.29703 | -87.53194 | 11272 ft | 285 kts | 239° |
| 2026-04-17 03:15 | 42.28622 | -87.55448 | 10910 ft | 285 kts | 239° |
| 2026-04-17 03:15 | 42.27546 | -87.57692 | 10550 ft | 284 kts | 239° |
| 2026-04-17 03:15 | 42.26471 | -87.59931 | 10177 ft | 284 kts | 239° |
| 2026-04-17 03:15 | 42.25398 | -87.62164 | 9804 ft | 283 kts | 238° |
| 2026-04-17 03:16 | 42.24333 | -87.64375 | 9421 ft | 277 kts | 238° |
| 2026-04-17 03:16 | 42.23086 | -87.66273 | 9062 ft | 268 kts | 215° |
| 2026-04-17 03:16 | 42.21381 | -87.67129 | 8706 ft | 261 kts | 185° |
| 2026-04-17 03:16 | 42.19622 | -87.66772 | 8312 ft | 257 kts | 156° |
| 2026-04-17 03:17 | 42.18095 | -87.65495 | 7901 ft | 260 kts | 145° |
| 2026-04-17 03:17 | 42.16611 | -87.64096 | 7474 ft | 259 kts | 145° |
| 2026-04-17 03:17 | 42.15151 | -87.62710 | 7078 ft | 255 kts | 145° |
| 2026-04-17 03:17 | 42.13651 | -87.61449 | 6647 ft | 252 kts | 160° |
| 2026-04-17 03:18 | 42.11981 | -87.61353 | 6237 ft | 238 kts | 200° |
| 2026-04-17 03:18 | 42.10706 | -87.62599 | 5887 ft | 223 kts | 232° |
| 2026-04-17 03:18 | 42.09787 | -87.64222 | 5530 ft | 215 kts | 236° |
| 2026-04-17 03:18 | 42.08954 | -87.65828 | 5197 ft | 205 kts | 237° |
| 2026-04-17 03:19 | 42.08152 | -87.67386 | 4838 ft | 198 kts | 237° |
| 2026-04-17 03:19 | 42.07378 | -87.68871 | 4516 ft | 190 kts | 236° |
| 2026-04-17 03:19 | 42.06756 | -87.70367 | 4215 ft | 175 kts | 255° |
| 2026-04-17 03:19 | 42.06676 | -87.71872 | 3949 ft | 154 kts | 279° |
| 2026-04-17 03:20 | 42.06855 | -87.73236 | 3725 ft | 141 kts | 281° |
| 2026-04-17 03:20 | 42.07007 | -87.74521 | 3513 ft | 137 kts | 281° |
| 2026-04-17 03:20 | 42.07154 | -87.75783 | 3290 ft | 136 kts | 281° |
| 2026-04-17 03:20 | 42.07297 | -87.77020 | 3070 ft | 135 kts | 281° |
| 2026-04-17 03:21 | 42.07442 | -87.78271 | 2856 ft | 135 kts | 280° |
| 2026-04-17 03:21 | 42.07585 | -87.79499 | 2640 ft | 133 kts | 279° |
| 2026-04-17 03:21 | 42.07718 | -87.80636 | 2434 ft | 133 kts | 278° |
| 2026-04-17 03:21 | 42.08010 | -87.81807 | 2213 ft | 134 kts | 298° |
| 2026-04-17 03:22 | 42.08456 | -87.82912 | 1997 ft | 135 kts | 297° |
| 2026-04-17 03:22 | 42.08897 | -87.84028 | 1774 ft | 135 kts | 298° |
| 2026-04-17 03:22 | 42.09337 | -87.85141 | 1552 ft | 134 kts | 298° |
| 2026-04-17 03:22 | 42.09776 | -87.86252 | 1318 ft | 134 kts | 298° |
| 2026-04-17 03:23 | 42.10206 | -87.87363 | 1040 ft | 133 kts | 299° |
| 2026-04-17 03:23 | 42.10640 | -87.88457 | 843 ft | 132 kts | 299° |
| 2026-04-17 03:23 | 42.11073 | -87.89533 | 649 ft | 129 kts | 298° |
| 2026-04-17 03:23 | 42.11394 | -87.90348 | 652 ft | 57 kts | 298° |
| 2026-04-17 03:24 | 42.11476 | -87.90554 | 650 ft | 9 kts | 298° |
| 2026-04-17 03:24 | 42.11508 | -87.90634 | 650 ft | 11 kts | 296° |
| 2026-04-17 03:24 | 42.11509 | -87.90713 | 651 ft | 8 kts | 213° |
| 2026-04-17 03:24 | 42.11463 | -87.90715 | 652 ft | 6 kts | 182° |
| 2026-04-17 03:25 | 42.11428 | -87.90716 | 653 ft | 5 kts | 180° |
| 2026-04-17 03:25 | 42.11397 | -87.90711 | 654 ft | 4 kts | 155° |
| 2026-04-17 03:25 | 42.11387 | -87.90688 | 654 ft | 3 kts | 119° |
| 2026-04-17 03:25 | 42.11379 | -87.90668 | 656 ft | 2 kts | 118° |
| 2026-04-17 03:26 | 42.11373 | -87.90654 | 654 ft | 1 kts | 124° |
| 2026-04-17 03:26 | 42.11343 | -87.90637 | 655 ft | 10 kts | 166° |
| 2026-04-17 03:26 | 42.11322 | -87.90609 | 657 ft | 0 kts | 97° |